Time;durP1;ratioP1;P1;durP2;ratioP2;P2;SDS_P1;SDS_P2;PMS_P1;PMS_P2;Temp;Humidity;BMP_temperature;BMP_pressure;BME280_temperature;BME280_humidity;BME280_pressure;Samples;Min_cycle;Max_cycle;Signal;HPM_P1;HPM_P2
2021/06/13 00:01:37;;;;;;;3.38;1.63;;;;;;;;;;4959319;28;20024;-82
2021/06/13 00:04:03;;;;;;;4.53;1.65;;;;;;;;;;4959023;28;20031;-82
2021/06/13 00:06:29;;;;;;;7.32;1.80;;;;;;;;;;4957489;29;20126;-82
2021/06/13 00:08:55;;;;;;;2.90;1.67;;;;;;;;;;4957197;29;20059;-83
2021/06/13 00:11:22;;;;;;;3.83;1.38;;;;;;;;;;4957220;29;20023;-81
2021/06/13 00:13:49;;;;;;;4.05;1.58;;;;;;;;;;4956975;29;20361;-79
2021/06/13 00:16:17;;;;;;;2.72;1.42;;;;;;;;;;4958471;28;20480;-82
2021/06/13 00:18:43;;;;;;;3.75;1.90;;;;;;;;;;4958321;28;20034;-81
2021/06/13 00:21:12;;;;;;;4.18;1.48;;;;;;;;;;4957041;29;20027;-82
2021/06/13 00:23:40;;;;;;;2.80;1.63;;;;;;;;;;4957770;29;20023;-82
2021/06/13 00:26:06;;;;;;;4.65;1.35;;;;;;;;;;4956651;29;20488;-81
2021/06/13 00:28:32;;;;;;;3.15;1.67;;;;;;;;;;4956925;29;20023;-82
2021/06/13 00:30:59;;;;;;;2.42;1.50;;;;;;;;;;4957165;29;20038;-82
2021/06/13 00:33:26;;;;;;;3.78;1.35;;;;;;;;;;4957990;28;20377;-81
2021/06/13 00:35:52;;;;;;;3.35;1.35;;;;;;;;;;4957932;28;20514;-81
2021/06/13 00:38:18;;;;;;;3.42;1.55;;;;;;;;;;4956503;29;20030;-80
2021/06/13 00:40:44;;;;;;;2.30;1.27;;;;;;;;;;4956514;29;20027;-81
2021/06/13 00:43:10;;;;;;;8.02;1.45;;;;;;;;;;4957687;28;20369;-82
2021/06/13 00:45:36;;;;;;;4.28;1.20;;;;;;;;;;4956375;29;20047;-82
2021/06/13 00:48:03;;;;;;;2.72;1.38;;;;;;;;;;4956501;29;20054;-80
2021/06/13 00:50:31;;;;;;;2.90;1.23;;;;;;;;;;4957646;28;20384;-81
2021/06/13 00:52:58;;;;;;;2.65;1.05;;;;;;;;;;4956296;29;20598;-81
2021/06/13 00:55:24;;;;;;;2.30;1.15;;;;;;;;;;4956353;29;20038;-81
2021/06/13 00:57:51;;;;;;;2.55;1.10;;;;;;;;;;4957044;28;20031;-81
2021/06/13 01:00:17;;;;;;;4.38;1.20;;;;;;;;;;4956217;29;20431;-81
2021/06/13 01:02:44;;;;;;;5.63;1.40;;;;;;;;;;4956167;29;20034;-81
2021/06/13 01:05:10;;;;;;;4.88;1.27;;;;;;;;;;4957352;28;20094;-81
2021/06/13 01:07:39;;;;;;;4.32;1.25;;;;;;;;;;4957620;28;20032;-80
2021/06/13 01:10:24;;;;;;;2.63;1.02;;;;;;;;;;4956061;29;20061;-81
2021/06/13 01:13:02;;;;;;;8.68;1.40;;;;;;;;;;4956050;29;20027;-81
2021/06/13 01:15:33;;;;;;;1.73;1.00;;;;;;;;;;4956021;29;20050;-82
2021/06/13 01:17:59;;;;;;;3.10;1.38;;;;;;;;;;4957104;28;20392;-81
2021/06/13 01:20:26;;;;;;;2.60;1.20;;;;;;;;;;4955826;29;20031;-81
2021/06/13 01:23:17;;;;;;;3.58;1.13;;;;;;;;;;4956427;29;20089;-79
2021/06/13 01:25:46;;;;;;;4.28;1.50;;;;;;;;;;4956232;29;20098;-81
2021/06/13 01:28:16;;;;;;;5.13;1.60;;;;;;;;;;4957277;28;20023;-80
2021/06/13 01:30:42;;;;;;;4.72;1.30;;;;;;;;;;4956076;29;20038;-81
2021/06/13 01:33:10;;;;;;;2.53;1.27;;;;;;;;;;4957655;28;20055;-80
2021/06/13 01:35:36;;;;;;;6.90;1.50;;;;;;;;;;4956027;29;20055;-82
2021/06/13 01:38:03;;;;;;;3.25;1.60;;;;;;;;;;4956267;29;20089;-83
2021/06/13 01:40:31;;;;;;;3.03;1.42;;;;;;;;;;4957451;28;20028;-82
2021/06/13 01:42:58;;;;;;;4.70;1.33;;;;;;;;;;4957479;28;20031;-82
2021/06/13 01:45:29;;;;;;;2.45;1.42;;;;;;;;;;4955882;29;20062;-82
2021/06/13 01:47:56;;;;;;;8.63;1.52;;;;;;;;;;4956101;29;20074;-82
2021/06/13 01:50:25;;;;;;;2.85;1.50;;;;;;;;;;4957218;28;20035;-82
2021/06/13 01:52:52;;;;;;;5.05;1.83;;;;;;;;;;4955788;29;20559;-82
2021/06/13 01:55:19;;;;;;;5.72;1.55;;;;;;;;;;4955987;29;20035;-82
2021/06/13 01:57:46;;;;;;;7.38;1.50;;;;;;;;;;4955661;29;20068;-82
2021/06/13 02:00:14;;;;;;;4.63;1.70;;;;;;;;;;4957149;28;20050;-81
2021/06/13 02:02:42;;;;;;;5.63;1.75;;;;;;;;;;4955573;29;20427;-81
2021/06/13 02:05:09;;;;;;;2.70;1.33;;;;;;;;;;4956907;28;20460;-83
2021/06/13 02:07:37;;;;;;;5.68;1.90;;;;;;;;;;4955304;28;20479;-82
2021/06/13 02:10:07;;;;;;;4.65;1.85;;;;;;;;;;4955427;29;20027;-83
2021/06/13 02:12:38;;;;;;;3.08;1.70;;;;;;;;;;4955511;29;20031;-84
2021/06/13 02:15:05;;;;;;;2.70;1.40;;;;;;;;;;4955611;29;20361;-82
2021/06/13 02:17:33;;;;;;;4.93;1.33;;;;;;;;;;4956630;28;20039;-81
2021/06/13 02:20:00;;;;;;;4.38;1.55;;;;;;;;;;4955495;29;20031;-81
2021/06/13 02:22:26;;;;;;;3.78;1.60;;;;;;;;;;4955774;29;20082;-83
2021/06/13 02:24:53;;;;;;;4.70;1.63;;;;;;;;;;4955393;29;20137;-81
2021/06/13 02:27:23;;;;;;;4.90;1.90;;;;;;;;;;4955322;29;20031;-83
2021/06/13 02:29:50;;;;;;;4.88;1.80;;;;;;;;;;4955274;29;20118;-82
2021/06/13 02:32:16;;;;;;;3.38;1.70;;;;;;;;;;4956460;28;20027;-83
2021/06/13 02:34:45;;;;;;;3.97;2.05;;;;;;;;;;4955146;29;20086;-81
2021/06/13 02:37:12;;;;;;;6.90;1.90;;;;;;;;;;4955149;29;20045;-83
2021/06/13 02:39:38;;;;;;;6.13;2.45;;;;;;;;;;4956862;28;20030;-81
2021/06/13 02:42:04;;;;;;;4.80;2.40;;;;;;;;;;4955063;29;20023;-82
2021/06/13 02:44:30;;;;;;;3.05;2.10;;;;;;;;;;4954672;29;20041;-82
2021/06/13 02:46:57;;;;;;;4.00;2.05;;;;;;;;;;4955137;29;20031;-83
2021/06/13 02:49:23;;;;;;;3.53;2.33;;;;;;;;;;4956138;28;20020;-81
2021/06/13 02:52:01;;;;;;;4.35;2.50;;;;;;;;;;4955019;29;20034;-80
2021/06/13 02:54:29;;;;;;;5.85;2.53;;;;;;;;;;4954903;29;20502;-81
2021/06/13 02:56:57;;;;;;;6.90;2.47;;;;;;;;;;4954760;29;20030;-81
2021/06/13 02:59:32;;;;;;;6.07;2.28;;;;;;;;;;4954761;29;20117;-81
2021/06/13 03:01:59;;;;;;;3.35;2.17;;;;;;;;;;4955903;28;20452;-80
2021/06/13 03:04:25;;;;;;;7.88;2.70;;;;;;;;;;4954236;29;20459;-80
2021/06/13 03:06:54;;;;;;;6.15;2.35;;;;;;;;;;4954546;29;20089;-82
2021/06/13 03:09:21;;;;;;;5.10;2.72;;;;;;;;;;4954529;29;20074;-80
2021/06/13 03:11:47;;;;;;;3.67;2.10;;;;;;;;;;4954656;29;20031;-80
2021/06/13 03:14:14;;;;;;;5.13;2.10;;;;;;;;;;4954238;29;20027;-82
2021/06/13 03:16:40;;;;;;;5.88;2.25;;;;;;;;;;4954344;29;20567;-82
2021/06/13 03:19:08;;;;;;;3.15;1.70;;;;;;;;;;4954303;28;20066;-82
2021/06/13 03:21:34;;;;;;;3.78;1.85;;;;;;;;;;4958435;29;20031;-83
2021/06/13 03:24:00;;;;;;;4.50;2.15;;;;;;;;;;4959980;28;20232;-84
2021/06/13 03:26:28;;;;;;;4.03;1.95;;;;;;;;;;4958088;29;20476;-81
2021/06/13 03:28:56;;;;;;;3.83;1.98;;;;;;;;;;4957852;29;20027;-81
2021/06/13 03:31:23;;;;;;;6.15;1.90;;;;;;;;;;4958036;29;20035;-81
2021/06/13 03:33:50;;;;;;;4.40;1.90;;;;;;;;;;4959390;28;20034;-81
2021/06/13 03:36:17;;;;;;;3.67;1.90;;;;;;;;;;4958116;29;20117;-81
2021/06/13 03:38:44;;;;;;;1.95;1.27;;;;;;;;;;4959619;28;20090;-80
2021/06/13 03:41:14;;;;;;;5.10;2.13;;;;;;;;;;4958201;29;20400;-81
2021/06/13 03:43:40;;;;;;;4.28;1.80;;;;;;;;;;4958262;29;20035;-81
2021/06/13 03:46:07;;;;;;;3.60;1.90;;;;;;;;;;4959241;28;20039;-80
2021/06/13 03:48:34;;;;;;;4.60;1.70;;;;;;;;;;4957769;29;20030;-82
2021/06/13 03:51:00;;;;;;;3.10;1.60;;;;;;;;;;4959423;28;20107;-82
2021/06/13 03:53:26;;;;;;;5.28;1.60;;;;;;;;;;4958874;28;20106;-79
2021/06/13 03:55:53;;;;;;;5.18;1.70;;;;;;;;;;4959258;28;20527;-80
2021/06/13 03:58:23;;;;;;;7.72;1.73;;;;;;;;;;4957357;29;20097;-79
2021/06/13 04:00:50;;;;;;;5.05;1.73;;;;;;;;;;4958677;28;20032;-80
2021/06/13 04:03:17;;;;;;;5.22;1.50;;;;;;;;;;4958449;28;20058;-82
2021/06/13 04:05:45;;;;;;;6.03;1.40;;;;;;;;;;4957328;29;20488;-80
2021/06/13 04:08:13;;;;;;;2.70;1.40;;;;;;;;;;4957344;29;20077;-83
2021/06/13 04:10:40;;;;;;;2.13;1.17;;;;;;;;;;4957168;29;20023;-81
2021/06/13 04:13:06;;;;;;;3.10;1.40;;;;;;;;;;4958774;28;20399;-80
2021/06/13 04:15:33;;;;;;;2.38;1.08;;;;;;;;;;4958197;28;20035;-84
2021/06/13 04:17:59;;;;;;;5.80;1.60;;;;;;;;;;4958723;28;20047;-82
2021/06/13 04:20:25;;;;;;;3.13;1.20;;;;;;;;;;4958237;28;20090;-81
2021/06/13 04:22:52;;;;;;;2.22;1.00;;;;;;;;;;4956806;29;20122;-83
2021/06/13 04:25:18;;;;;;;4.28;1.00;;;;;;;;;;4956688;29;20038;-82
2021/06/13 04:27:46;;;;;;;3.80;1.10;;;;;;;;;;4958269;28;20460;-82
2021/06/13 04:30:13;;;;;;;3.45;0.90;;;;;;;;;;4958536;28;20037;-80
2021/06/13 04:32:39;;;;;;;3.65;0.93;;;;;;;;;;4955763;29;20034;-84
2021/06/13 04:35:06;;;;;;;3.42;0.70;;;;;;;;;;4956551;29;20043;-82
2021/06/13 04:37:32;;;;;;;2.55;1.00;;;;;;;;;;4957972;28;20042;-81
2021/06/13 04:39:58;;;;;;;3.88;0.88;;;;;;;;;;4958426;28;20027;-83
2021/06/13 04:42:24;;;;;;;3.13;0.85;;;;;;;;;;4957788;28;20031;-81
2021/06/13 04:44:50;;;;;;;4.45;0.90;;;;;;;;;;4956436;29;20035;-83
2021/06/13 04:47:17;;;;;;;5.90;0.90;;;;;;;;;;4957737;28;20020;-83
2021/06/13 04:49:44;;;;;;;2.95;0.95;;;;;;;;;;4958203;28;20034;-81
2021/06/13 04:52:13;;;;;;;1.80;0.93;;;;;;;;;;4957533;28;20034;-84
2021/06/13 04:55:03;;;;;;;6.82;1.00;;;;;;;;;;4956749;29;20138;-83
2021/06/13 04:57:32;;;;;;;2.55;1.05;;;;;;;;;;4940688;29;20031;-83
2021/06/13 04:59:58;;;;;;;1.70;0.90;;;;;;;;;;4956421;29;20392;-85
2021/06/13 05:02:24;;;;;;;6.55;1.00;;;;;;;;;;4956107;29;20027;-81
2021/06/13 05:04:53;;;;;;;1.60;0.85;;;;;;;;;;4957740;28;20444;-83
2021/06/13 05:07:19;;;;;;;3.75;0.80;;;;;;;;;;4956213;29;20031;-81
2021/06/13 05:09:45;;;;;;;5.22;0.82;;;;;;;;;;4957423;28;20027;-83
2021/06/13 05:12:12;;;;;;;2.50;0.80;;;;;;;;;;4957406;28;20110;-85
2021/06/13 05:14:38;;;;;;;3.55;0.88;;;;;;;;;;4957392;28;20031;-84
2021/06/13 05:17:05;;;;;;;3.40;1.08;;;;;;;;;;4955896;29;20051;-88
2021/06/13 05:19:31;;;;;;;4.90;1.00;;;;;;;;;;4957220;29;20031;-82
2021/06/13 05:21:57;;;;;;;4.47;1.20;;;;;;;;;;4957669;28;20473;-84
2021/06/13 05:24:24;;;;;;;2.63;1.00;;;;;;;;;;4957244;28;20050;-82
2021/06/13 05:26:50;;;;;;;1.65;0.80;;;;;;;;;;4957553;28;20428;-82
2021/06/13 05:29:20;;;;;;;3.85;1.08;;;;;;;;;;4955601;29;20027;-84
2021/06/13 05:31:46;;;;;;;9.30;1.00;;;;;;;;;;4955832;29;20472;-82
2021/06/13 05:34:12;;;;;;;4.18;1.00;;;;;;;;;;4957625;28;20034;-81
2021/06/13 05:36:38;;;;;;;3.35;1.10;;;;;;;;;;4957573;28;20047;-82
2021/06/13 05:39:05;;;;;;;2.80;0.80;;;;;;;;;;4958072;28;20027;-81
2021/06/13 05:41:31;;;;;;;2.50;0.90;;;;;;;;;;4957888;28;20047;-84
2021/06/13 05:44:01;;;;;;;5.90;0.98;;;;;;;;;;4956057;28;20039;-82
2021/06/13 05:46:27;;;;;;;3.85;0.80;;;;;;;;;;4957687;28;20432;-80
2021/06/13 05:48:53;;;;;;;2.58;0.98;;;;;;;;;;4956889;28;20051;-82
2021/06/13 05:51:19;;;;;;;3.05;0.80;;;;;;;;;;4955705;29;20023;-82
2021/06/13 05:53:46;;;;;;;3.25;1.15;;;;;;;;;;4955366;29;20039;-82
2021/06/13 05:56:12;;;;;;;3.17;0.90;;;;;;;;;;4957049;28;20035;-81
2021/06/13 05:58:38;;;;;;;1.83;0.80;;;;;;;;;;4956301;28;20032;-81
2021/06/13 06:01:05;;;;;;;3.38;0.85;;;;;;;;;;4956190;28;20525;-82
2021/06/13 06:03:31;;;;;;;3.50;0.68;;;;;;;;;;4954850;29;20023;-82
2021/06/13 06:05:57;;;;;;;3.05;0.80;;;;;;;;;;4956015;28;20078;-82
2021/06/13 06:08:26;;;;;;;3.50;0.70;;;;;;;;;;4954841;29;20027;-82
2021/06/13 06:10:53;;;;;;;1.45;0.63;;;;;;;;;;4954856;29;20031;-81
2021/06/13 06:13:19;;;;;;;3.20;0.82;;;;;;;;;;4954840;29;20173;-82
2021/06/13 06:15:46;;;;;;;1.92;0.65;;;;;;;;;;4956111;28;20039;-82
2021/06/13 06:18:13;;;;;;;1.60;0.57;;;;;;;;;;4956115;28;20019;-81
2021/06/13 06:20:40;;;;;;;3.92;0.52;;;;;;;;;;4956000;28;20037;-82
2021/06/13 06:23:06;;;;;;;4.18;0.60;;;;;;;;;;4956438;28;20109;-82
2021/06/13 06:25:32;;;;;;;4.45;0.70;;;;;;;;;;4955798;28;20050;-82
2021/06/13 06:27:59;;;;;;;1.52;0.50;;;;;;;;;;4956054;28;20033;-81
2021/06/13 06:30:26;;;;;;;2.75;0.75;;;;;;;;;;4955787;28;20086;-81
2021/06/13 06:32:53;;;;;;;3.42;0.82;;;;;;;;;;4955769;28;20033;-81
2021/06/13 06:35:19;;;;;;;4.30;0.60;;;;;;;;;;4955443;28;20106;-82
2021/06/13 06:37:46;;;;;;;6.00;0.80;;;;;;;;;;4954408;29;20031;-81
2021/06/13 06:40:13;;;;;;;2.05;0.80;;;;;;;;;;4956092;28;20409;-81
2021/06/13 06:42:40;;;;;;;2.65;0.90;;;;;;;;;;4955605;28;20032;-81
2021/06/13 06:45:10;;;;;;;1.55;0.73;;;;;;;;;;4954310;29;20043;-81
2021/06/13 06:47:36;;;;;;;3.70;0.80;;;;;;;;;;4954269;29;20388;-81
2021/06/13 06:50:03;;;;;;;5.38;1.25;;;;;;;;;;4954270;29;20122;-81
2021/06/13 06:52:30;;;;;;;3.97;1.00;;;;;;;;;;4955443;28;20027;-81
2021/06/13 06:54:58;;;;;;;3.85;1.10;;;;;;;;;;4955767;28;20491;-81
2021/06/13 06:57:24;;;;;;;4.93;1.25;;;;;;;;;;4954184;29;20023;-79
2021/06/13 06:59:50;;;;;;;3.15;0.93;;;;;;;;;;4954034;29;20032;-79
2021/06/13 07:02:16;;;;;;;2.63;0.90;;;;;;;;;;4955283;28;20027;-80
2021/06/13 07:04:42;;;;;;;5.10;0.93;;;;;;;;;;4953587;29;20476;-80
2021/06/13 07:07:08;;;;;;;3.58;0.73;;;;;;;;;;4955359;28;20031;-82
2021/06/13 07:09:35;;;;;;;4.05;0.70;;;;;;;;;;4954059;29;20110;-81
2021/06/13 07:12:01;;;;;;;8.20;1.02;;;;;;;;;;4954028;29;20082;-81
2021/06/13 07:14:27;;;;;;;1.80;0.80;;;;;;;;;;4953994;29;20030;-81
2021/06/13 07:16:53;;;;;;;1.40;0.70;;;;;;;;;;4955323;28;20034;-80
2021/06/13 07:19:19;;;;;;;2.85;0.85;;;;;;;;;;4953950;29;20035;-81
2021/06/13 07:21:45;;;;;;;3.95;1.10;;;;;;;;;;4953929;29;20037;-81
2021/06/13 07:24:12;;;;;;;4.50;1.00;;;;;;;;;;4953861;29;20037;-81
2021/06/13 07:26:38;;;;;;;2.85;0.80;;;;;;;;;;4955731;28;20496;-81
2021/06/13 07:29:04;;;;;;;5.88;1.13;;;;;;;;;;4953913;29;20032;-81
2021/06/13 07:31:31;;;;;;;1.55;0.70;;;;;;;;;;4955179;28;20023;-82
2021/06/13 07:33:57;;;;;;;1.65;0.80;;;;;;;;;;4955134;28;20034;-82
2021/06/13 07:36:23;;;;;;;5.28;1.33;;;;;;;;;;4954851;28;20063;-81
2021/06/13 07:38:50;;;;;;;3.70;0.80;;;;;;;;;;4953819;29;20413;-81
2021/06/13 07:41:16;;;;;;;4.55;1.00;;;;;;;;;;4955580;28;20035;-79
2021/06/13 07:43:42;;;;;;;5.55;1.17;;;;;;;;;;4955721;28;20099;-79
2021/06/13 07:46:08;;;;;;;3.22;1.00;;;;;;;;;;4955638;28;20094;-79
2021/06/13 07:48:34;;;;;;;6.32;1.13;;;;;;;;;;4953727;29;20496;-81
2021/06/13 07:51:01;;;;;;;2.63;0.85;;;;;;;;;;4953819;29;20144;-80
2021/06/13 07:53:28;;;;;;;5.63;1.10;;;;;;;;;;4954888;28;20026;-81
2021/06/13 07:55:54;;;;;;;3.00;0.90;;;;;;;;;;4953688;29;20114;-80
2021/06/13 07:58:20;;;;;;;5.28;0.80;;;;;;;;;;4953650;29;20031;-80
2021/06/13 08:00:50;;;;;;;2.75;1.10;;;;;;;;;;4954913;28;20024;-81
2021/06/13 08:03:16;;;;;;;2.25;0.70;;;;;;;;;;4954868;28;20038;-81
2021/06/13 08:05:43;;;;;;;2.80;0.77;;;;;;;;;;4955823;28;20071;-81
2021/06/13 08:08:10;;;;;;;2.15;0.60;;;;;;;;;;4958347;28;20110;-81
2021/06/13 08:10:39;;;;;;;3.97;0.90;;;;;;;;;;4957025;29;20035;-81
2021/06/13 08:13:06;;;;;;;4.28;0.88;;;;;;;;;;4958278;28;20491;-81
2021/06/13 08:15:32;;;;;;;5.50;0.70;;;;;;;;;;4956941;29;20399;-81
2021/06/13 08:17:59;;;;;;;4.15;0.55;;;;;;;;;;4958182;28;20031;-81
2021/06/13 08:20:26;;;;;;;3.80;0.63;;;;;;;;;;4958103;28;20027;-81
2021/06/13 08:22:52;;;;;;;2.15;0.70;;;;;;;;;;4958077;28;20413;-81
2021/06/13 08:25:19;;;;;;;3.50;0.82;;;;;;;;;;4956711;29;20076;-81
2021/06/13 08:27:46;;;;;;;5.38;0.95;;;;;;;;;;4957950;28;20102;-81
2021/06/13 08:30:13;;;;;;;2.35;0.60;;;;;;;;;;4958440;28;20082;-81
2021/06/13 08:32:40;;;;;;;2.10;0.60;;;;;;;;;;4958666;28;20036;-81
2021/06/13 08:35:07;;;;;;;6.78;0.68;;;;;;;;;;4957682;28;20047;-81
2021/06/13 08:37:34;;;;;;;4.60;0.68;;;;;;;;;;4958381;28;20034;-81
2021/06/13 08:40:00;;;;;;;3.15;0.50;;;;;;;;;;4957781;28;20023;-81
2021/06/13 08:42:27;;;;;;;2.53;0.57;;;;;;;;;;4957676;28;20094;-81
2021/06/13 08:44:53;;;;;;;2.20;0.50;;;;;;;;;;4957625;28;20038;-81
2021/06/13 08:47:22;;;;;;;4.43;0.60;;;;;;;;;;4957660;28;20027;-81
2021/06/13 08:49:48;;;;;;;2.33;0.75;;;;;;;;;;4956359;29;20027;-81
2021/06/13 08:52:15;;;;;;;10.05;0.70;;;;;;;;;;4957590;28;20366;-80
2021/06/13 08:54:41;;;;;;;2.25;0.50;;;;;;;;;;4957463;28;20031;-80
2021/06/13 08:57:08;;;;;;;4.10;0.77;;;;;;;;;;4957417;28;20099;-81
2021/06/13 08:59:36;;;;;;;2.58;0.50;;;;;;;;;;4957440;28;20027;-79
2021/06/13 09:02:05;;;;;;;4.35;0.73;;;;;;;;;;4956268;29;20031;-81
2021/06/13 09:04:33;;;;;;;4.88;0.80;;;;;;;;;;4956118;29;20388;-81
2021/06/13 09:06:59;;;;;;;5.22;0.85;;;;;;;;;;4957268;28;20035;-81
2021/06/13 09:09:26;;;;;;;1.40;0.60;;;;;;;;;;4957229;28;20197;-81
2021/06/13 09:11:58;;;;;;;3.80;0.50;;;;;;;;;;4955955;29;20507;-81
2021/06/13 09:14:25;;;;;;;3.33;0.80;;;;;;;;;;4955961;29;20180;-79
2021/06/13 09:16:52;;;;;;;2.38;0.63;;;;;;;;;;4956765;28;20114;-79
2021/06/13 09:19:18;;;;;;;8.13;0.70;;;;;;;;;;4955697;29;20027;-80
2021/06/13 09:21:46;;;;;;;1.83;0.50;;;;;;;;;;4955888;29;20031;-79
2021/06/13 09:24:22;;;;;;;2.22;0.55;;;;;;;;;;4955944;29;20393;-80
2021/06/13 09:26:48;;;;;;;2.28;0.50;;;;;;;;;;4955669;29;20035;-80
2021/06/13 09:29:15;;;;;;;4.47;0.60;;;;;;;;;;4957026;28;20609;-79
2021/06/13 09:31:41;;;;;;;1.38;0.40;;;;;;;;;;4957398;28;20027;-79
2021/06/13 09:34:13;;;;;;;2.30;0.63;;;;;;;;;;4955581;29;20504;-81
2021/06/13 09:36:40;;;;;;;1.75;0.45;;;;;;;;;;4955466;29;20122;-81
2021/06/13 09:39:10;;;;;;;2.05;0.70;;;;;;;;;;4956745;28;20064;-79
2021/06/13 09:41:39;;;;;;;1.63;0.47;;;;;;;;;;4955491;29;20034;-80
2021/06/13 09:44:09;;;;;;;1.70;0.55;;;;;;;;;;4955377;29;20034;-79
2021/06/13 09:46:37;;;;;;;5.68;0.60;;;;;;;;;;4956521;28;20031;-80
2021/06/13 09:49:06;;;;;;;4.82;0.60;;;;;;;;;;4955255;29;20027;-79
2021/06/13 09:51:34;;;;;;;1.70;0.60;;;;;;;;;;4956473;28;20023;-80
2021/06/13 09:54:05;;;;;;;4.88;0.82;;;;;;;;;;4955229;29;20086;-80
2021/06/13 09:56:32;;;;;;;2.03;0.60;;;;;;;;;;4955097;29;20034;-80
2021/06/13 09:59:06;;;;;;;7.63;0.80;;;;;;;;;;4955088;29;20027;-79
2021/06/13 10:01:33;;;;;;;2.67;0.80;;;;;;;;;;4955121;29;20023;-78
2021/06/13 10:04:00;;;;;;;3.03;0.60;;;;;;;;;;4954997;29;20042;-79
2021/06/13 10:06:31;;;;;;;1.98;0.70;;;;;;;;;;4954870;29;20035;-79
2021/06/13 10:08:58;;;;;;;5.55;0.60;;;;;;;;;;4956759;28;20049;-80
2021/06/13 10:11:24;;;;;;;3.58;0.70;;;;;;;;;;4954829;29;20039;-80
2021/06/13 10:13:52;;;;;;;6.00;0.90;;;;;;;;;;4954795;29;20443;-79
2021/06/13 10:16:35;;;;;;;3.50;0.90;;;;;;;;;;4956594;28;20369;-80
2021/06/13 10:19:04;;;;;;;2.65;0.68;;;;;;;;;;4954759;29;20496;-80
2021/06/13 10:21:34;;;;;;;3.78;0.70;;;;;;;;;;4955895;28;20066;-80
2021/06/13 10:24:01;;;;;;;2.85;0.65;;;;;;;;;;4954630;29;20024;-79
2021/06/13 10:26:27;;;;;;;2.58;0.75;;;;;;;;;;4955846;28;20035;-78
2021/06/13 10:28:53;;;;;;;4.65;1.00;;;;;;;;;;4954143;28;20106;-79
2021/06/13 10:31:19;;;;;;;4.15;0.77;;;;;;;;;;4956521;28;20034;-81
2021/06/13 10:33:46;;;;;;;3.33;1.00;;;;;;;;;;4956345;28;20518;-79
2021/06/13 10:36:13;;;;;;;2.40;0.95;;;;;;;;;;4955460;28;20055;-80
2021/06/13 10:38:39;;;;;;;3.47;0.90;;;;;;;;;;4954417;29;20440;-80
2021/06/13 10:41:05;;;;;;;2.45;0.60;;;;;;;;;;4955650;28;20429;-79
2021/06/13 10:43:32;;;;;;;4.72;0.80;;;;;;;;;;4955573;28;20027;-78
2021/06/13 10:46:09;;;;;;;1.60;0.80;;;;;;;;;;4954269;29;20035;-81
2021/06/13 10:48:39;;;;;;;5.43;1.00;;;;;;;;;;4954297;29;20499;-80
2021/06/13 10:51:24;;;;;;;2.03;0.90;;;;;;;;;;4954249;29;20038;-80
2021/06/13 10:53:50;;;;;;;4.20;1.20;;;;;;;;;;4954211;29;20055;-80
2021/06/13 10:56:23;;;;;;;5.38;1.00;;;;;;;;;;4955457;28;20503;-80
2021/06/13 10:58:52;;;;;;;4.55;0.88;;;;;;;;;;4954183;29;20023;-80
2021/06/13 11:01:28;;;;;;;7.72;1.00;;;;;;;;;;4954156;29;20078;-79
2021/06/13 11:04:02;;;;;;;5.82;1.25;;;;;;;;;;4954174;29;20023;-79
2021/06/13 11:06:37;;;;;;;4.57;1.15;;;;;;;;;;4954001;29;20042;-79
2021/06/13 11:09:08;;;;;;;7.18;0.98;;;;;;;;;;4956101;28;20453;-80
2021/06/13 11:11:36;;;;;;;4.05;1.00;;;;;;;;;;4955535;28;20094;-80
2021/06/13 11:14:20;;;;;;;3.13;1.08;;;;;;;;;;4954258;29;20074;-80
2021/06/13 11:16:47;;;;;;;3.80;1.10;;;;;;;;;;4955515;29;20076;-80
2021/06/13 11:19:29;;;;;;;3.20;1.20;;;;;;;;;;4954306;29;20024;-79
2021/06/13 11:22:14;;;;;;;7.53;1.17;;;;;;;;;;4954012;29;20038;-79
2021/06/13 11:24:55;;;;;;;3.90;1.00;;;;;;;;;;4955133;28;20042;-79
2021/06/13 11:27:22;;;;;;;2.25;0.90;;;;;;;;;;4953926;29;20035;-78
2021/06/13 11:29:51;;;;;;;2.35;0.98;;;;;;;;;;4954021;29;20032;-79
2021/06/13 11:32:17;;;;;;;4.22;1.40;;;;;;;;;;4953876;29;20031;-79
2021/06/13 11:34:48;;;;;;;3.03;0.80;;;;;;;;;;4954947;28;20058;-79
2021/06/13 11:37:23;;;;;;;3.58;0.75;;;;;;;;;;4955770;28;20461;-79
2021/06/13 11:39:56;;;;;;;2.92;0.98;;;;;;;;;;4954163;28;20387;-79
2021/06/13 11:42:23;;;;;;;11.15;1.40;;;;;;;;;;4957780;29;20038;-80
2021/06/13 11:44:53;;;;;;;5.05;0.82;;;;;;;;;;4957537;29;20031;-78
2021/06/13 11:47:37;;;;;;;4.18;1.40;;;;;;;;;;4957659;29;20562;-79
2021/06/13 11:50:05;;;;;;;1.90;0.80;;;;;;;;;;4957570;29;20027;-80
2021/06/13 11:52:49;;;;;;;3.33;1.17;;;;;;;;;;4958663;28;20420;-80
2021/06/13 11:55:16;;;;;;;4.15;1.00;;;;;;;;;;4957496;29;20391;-83
2021/06/13 11:57:43;;;;;;;2.40;1.10;;;;;;;;;;4959257;28;20027;-81
2021/06/13 12:00:13;;;;;;;1.60;0.80;;;;;;;;;;4959027;28;20034;-81
2021/06/13 12:02:39;;;;;;;2.95;1.20;;;;;;;;;;4959180;28;20034;-81
2021/06/13 12:05:07;;;;;;;3.53;0.93;;;;;;;;;;4957153;29;20039;-82
2021/06/13 12:07:42;;;;;;;2.58;1.00;;;;;;;;;;4957101;29;20019;-81
2021/06/13 12:10:18;;;;;;;4.70;1.00;;;;;;;;;;4958357;28;20024;-81
2021/06/13 12:12:45;;;;;;;2.60;1.10;;;;;;;;;;4958259;28;20520;-81
2021/06/13 12:15:11;;;;;;;6.60;0.90;;;;;;;;;;4958220;28;20019;-81
2021/06/13 12:17:38;;;;;;;2.55;0.98;;;;;;;;;;4958225;28;20490;-81
2021/06/13 12:20:05;;;;;;;3.92;1.23;;;;;;;;;;4958617;28;20027;-81
2021/06/13 12:22:44;;;;;;;2.42;1.10;;;;;;;;;;4956825;29;20035;-80
2021/06/13 12:27:44;;;;;;;4.03;0.93;;;;;;;;;;4958073;28;20031;-81
2021/06/13 12:30:10;;;;;;;3.60;1.10;;;;;;;;;;4956674;29;20090;-80
2021/06/13 12:32:37;;;;;;;6.57;0.90;;;;;;;;;;4958465;28;20042;-80
2021/06/13 12:35:14;;;;;;;2.95;1.08;;;;;;;;;;4957640;28;20423;-80
2021/06/13 12:37:42;;;;;;;5.93;1.13;;;;;;;;;;4956670;29;20064;-80
2021/06/13 12:40:11;;;;;;;3.33;1.10;;;;;;;;;;4956523;29;20027;-81
2021/06/13 12:42:38;;;;;;;5.53;0.95;;;;;;;;;;4956479;29;20114;-80
2021/06/13 12:45:09;;;;;;;3.33;1.02;;;;;;;;;;4956378;29;20038;-81
2021/06/13 12:47:36;;;;;;;2.50;0.93;;;;;;;;;;4958260;28;20067;-81
2021/06/13 12:50:03;;;;;;;2.78;0.70;;;;;;;;;;4958172;28;20457;-80
2021/06/13 12:52:30;;;;;;;7.53;1.20;;;;;;;;;;4957222;28;20168;-80
2021/06/13 12:55:02;;;;;;;4.55;1.00;;;;;;;;;;4957530;28;20110;-80
2021/06/13 12:57:29;;;;;;;5.28;1.08;;;;;;;;;;4957421;28;20034;-79
2021/06/13 12:59:56;;;;;;;2.28;0.93;;;;;;;;;;4957954;28;20031;-80
2021/06/13 13:02:23;;;;;;;3.35;1.00;;;;;;;;;;4957421;28;20019;-80
2021/06/13 13:04:53;;;;;;;3.45;0.90;;;;;;;;;;4957832;28;20062;-80
2021/06/13 13:07:28;;;;;;;3.78;1.10;;;;;;;;;;4957875;28;20441;-80
2021/06/13 13:10:06;;;;;;;4.00;0.77;;;;;;;;;;4955990;29;20038;-80
2021/06/13 13:12:32;;;;;;;4.45;0.85;;;;;;;;;;4955964;29;20023;-80
2021/06/13 13:15:07;;;;;;;6.20;1.13;;;;;;;;;;4957179;28;20149;-80
2021/06/13 13:17:35;;;;;;;4.75;1.08;;;;;;;;;;4955946;29;20034;-80
2021/06/13 13:20:14;;;;;;;3.25;0.82;;;;;;;;;;4957059;28;20035;-80
2021/06/13 13:22:44;;;;;;;2.72;0.63;;;;;;;;;;4955812;29;20141;-80
2021/06/13 13:25:12;;;;;;;3.53;0.80;;;;;;;;;;4956895;28;20046;-80
2021/06/13 13:27:38;;;;;;;3.75;0.70;;;;;;;;;;4957430;28;20102;-80
2021/06/13 13:30:05;;;;;;;4.65;1.30;;;;;;;;;;4957393;28;20031;-81
2021/06/13 13:32:51;;;;;;;5.38;1.15;;;;;;;;;;4956872;28;20043;-80
2021/06/13 13:35:26;;;;;;;2.88;0.90;;;;;;;;;;4956553;28;20054;-80
2021/06/13 13:37:53;;;;;;;7.03;1.05;;;;;;;;;;4955570;29;20045;-79
2021/06/13 13:40:20;;;;;;;2.00;0.70;;;;;;;;;;4956707;28;20031;-79
2021/06/13 13:43:04;;;;;;;3.28;0.80;;;;;;;;;;4956696;28;20031;-80
2021/06/13 13:45:31;;;;;;;7.97;0.90;;;;;;;;;;4955256;29;20035;-80
2021/06/13 13:48:06;;;;;;;2.63;0.98;;;;;;;;;;4955257;29;20064;-80
2021/06/13 13:50:43;;;;;;;6.75;1.10;;;;;;;;;;4955236;29;20049;-80
2021/06/13 13:53:17;;;;;;;8.60;1.00;;;;;;;;;;4955199;29;20464;-80
2021/06/13 13:55:54;;;;;;;1.98;0.68;;;;;;;;;;4955153;29;20461;-80
2021/06/13 13:58:21;;;;;;;3.28;0.80;;;;;;;;;;4955065;29;20027;-80
2021/06/13 14:00:50;;;;;;;2.42;0.50;;;;;;;;;;4956814;28;20019;-80
2021/06/13 14:03:16;;;;;;;1.55;0.63;;;;;;;;;;4954945;28;20547;-80
2021/06/13 14:05:43;;;;;;;5.45;0.82;;;;;;;;;;4956122;28;20036;-80
2021/06/13 14:08:09;;;;;;;8.90;1.00;;;;;;;;;;4956182;28;20031;-80
2021/06/13 14:10:36;;;;;;;2.38;0.88;;;;;;;;;;4954857;29;20024;-80
2021/06/13 14:13:02;;;;;;;1.95;0.65;;;;;;;;;;4956098;28;20078;-80
2021/06/13 14:15:29;;;;;;;4.57;1.02;;;;;;;;;;4956075;28;20055;-80
2021/06/13 14:17:56;;;;;;;9.38;0.80;;;;;;;;;;4954750;29;20028;-80
2021/06/13 14:20:22;;;;;;;5.78;0.77;;;;;;;;;;4956495;28;20019;-80
2021/06/13 14:22:50;;;;;;;3.00;0.88;;;;;;;;;;4956478;28;20023;-80
2021/06/13 14:25:17;;;;;;;2.70;0.90;;;;;;;;;;4956353;28;20039;-80
2021/06/13 14:27:44;;;;;;;2.17;0.95;;;;;;;;;;4954621;29;20031;-80
2021/06/13 14:30:10;;;;;;;3.47;0.75;;;;;;;;;;4955767;28;20473;-80
2021/06/13 14:32:37;;;;;;;2.42;0.75;;;;;;;;;;4956314;28;20366;-80
2021/06/13 14:35:04;;;;;;;3.05;0.68;;;;;;;;;;4954202;29;20436;-80
2021/06/13 14:37:31;;;;;;;3.65;0.80;;;;;;;;;;4955726;28;20031;-80
2021/06/13 14:39:57;;;;;;;6.13;0.90;;;;;;;;;;4955684;28;20476;-80
2021/06/13 14:42:24;;;;;;;3.40;1.20;;;;;;;;;;4956143;28;20038;-79
2021/06/13 14:44:50;;;;;;;3.60;1.00;;;;;;;;;;4955562;28;20453;-80
2021/06/13 14:47:17;;;;;;;3.40;0.75;;;;;;;;;;4956074;28;20045;-79
2021/06/13 14:49:43;;;;;;;3.30;0.80;;;;;;;;;;4956094;28;20516;-79
2021/06/13 14:52:12;;;;;;;1.67;0.63;;;;;;;;;;4955517;28;20023;-79